Time;durP1;ratioP1;P1;durP2;ratioP2;P2;SDS_P1;SDS_P2;PMS_P1;PMS_P2;Temp;Humidity;BMP_temperature;BMP_pressure;BME280_temperature;BME280_humidity;BME280_pressure;Samples;Min_cycle;Max_cycle;Signal;HPM_P1;HPM_P2
2021/06/18 00:02:03;;;;;;;5.80;2.80;;;;;;;18.75;76.56;99028.88;5113621;28;20027;-77
2021/06/18 00:04:29;;;;;;;3.70;2.90;;;;;;;18.73;76.58;99027.28;5095759;28;20027;-77
2021/06/18 00:06:54;;;;;;;3.50;3.20;;;;;;;18.68;76.89;99038.31;5094655;28;20031;-77
2021/06/18 00:09:20;;;;;;;3.20;2.88;;;;;;;18.61;76.73;99023.72;5093500;28;20041;-76
2021/06/18 00:11:45;;;;;;;5.45;2.60;;;;;;;18.66;76.58;99021.63;5102207;28;20027;-76
2021/06/18 00:14:11;;;;;;;4.55;4.15;;;;;;;18.64;76.41;99015.75;5113412;28;20032;-76
2021/06/18 00:16:36;;;;;;;3.30;3.00;;;;;;;18.67;76.23;99011.56;5101845;28;20114;-76
2021/06/18 00:19:02;;;;;;;4.57;3.88;;;;;;;18.68;76.00;99013.94;5099933;28;20492;-76
2021/06/18 00:21:29;;;;;;;5.15;2.88;;;;;;;18.71;76.12;99012.50;5101647;28;20024;-76
2021/06/18 00:23:54;;;;;;;3.80;3.22;;;;;;;18.72;76.04;99019.50;5098515;28;20042;-76
2021/06/18 00:26:20;;;;;;;5.57;3.20;;;;;;;18.71;76.14;99012.50;5110717;28;21345;-76
2021/06/18 00:28:45;;;;;;;4.45;3.20;;;;;;;18.68;76.04;99008.53;5110313;28;20513;-76
2021/06/18 00:31:11;;;;;;;4.50;2.72;;;;;;;18.71;75.97;99009.78;5107000;28;20506;-77
2021/06/18 00:33:37;;;;;;;3.92;3.17;;;;;;;18.67;75.69;99008.88;5077716;28;20062;-77
2021/06/18 00:36:03;;;;;;;3.65;2.92;;;;;;;18.64;75.79;99001.38;5074828;28;20405;-77
2021/06/18 00:38:29;;;;;;;3.58;3.20;;;;;;;18.59;75.92;98999.69;5095326;28;20464;-77
2021/06/18 00:40:55;;;;;;;3.90;3.05;;;;;;;18.55;76.07;99001.47;5093282;28;20027;-78
2021/06/18 00:43:21;;;;;;;3.60;2.85;;;;;;;18.49;75.96;98986.53;5113741;28;20050;-77
2021/06/18 00:45:46;;;;;;;6.32;2.97;;;;;;;18.47;75.91;98992.28;5113078;28;20019;-78
2021/06/18 00:48:13;;;;;;;4.25;3.20;;;;;;;18.43;76.09;98985.97;5094993;28;20169;-76
2021/06/18 00:50:39;;;;;;;3.05;2.80;;;;;;;18.38;76.00;98986.13;5104637;28;20044;-76
2021/06/18 00:53:05;;;;;;;2.83;2.55;;;;;;;18.37;75.87;98992.66;5080418;28;20027;-76
2021/06/18 00:55:32;;;;;;;5.53;2.58;;;;;;;18.37;76.02;98996.19;5094513;28;20525;-77
2021/06/18 00:57:58;;;;;;;5.22;3.00;;;;;;;18.34;75.92;98988.69;5112097;28;20039;-76
2021/06/18 01:00:24;;;;;;;3.80;3.00;;;;;;;18.33;75.97;98983.63;5094656;28;20038;-76
2021/06/18 01:02:50;;;;;;;4.00;3.00;;;;;;;18.37;75.70;98981.84;5094454;28;20031;-77
2021/06/18 01:05:17;;;;;;;2.60;2.40;;;;;;;18.38;75.80;98986.13;5113385;28;20084;-77
2021/06/18 01:08:01;;;;;;;2.80;2.50;;;;;;;18.42;75.62;98986.28;5094683;28;20028;-79
2021/06/18 01:11:07;;;;;;;2.80;2.60;;;;;;;18.43;75.28;98980.53;5094081;28;20036;-77
2021/06/18 01:14:00;;;;;;;3.00;2.35;;;;;;;18.44;74.89;98981.31;5112811;28;20107;-77
2021/06/18 01:16:36;;;;;;;2.85;2.63;;;;;;;18.46;74.71;98981.78;5110269;28;20034;-77
2021/06/18 01:19:05;;;;;;;2.83;2.45;;;;;;;18.47;74.46;98984.16;5083960;28;20031;-77
2021/06/18 01:21:43;;;;;;;2.65;2.38;;;;;;;18.45;74.36;98977.50;5081056;28;20032;-76
2021/06/18 01:24:36;;;;;;;3.72;2.38;;;;;;;18.47;74.15;98980.66;5091803;28;20101;-76
2021/06/18 01:27:43;;;;;;;2.45;2.22;;;;;;;18.44;73.90;98984.03;5084646;28;20464;-76
2021/06/18 01:30:18;;;;;;;2.55;2.35;;;;;;;18.40;74.24;98984.69;5093984;28;20106;-76
2021/06/18 01:33:03;;;;;;;2.55;2.17;;;;;;;18.39;74.33;98985.00;5112114;28;20027;-77
2021/06/18 01:35:42;;;;;;;2.40;2.08;;;;;;;18.37;74.19;98987.25;5112536;28;20062;-77
2021/06/18 01:38:11;;;;;;;3.42;2.55;;;;;;;18.41;74.04;98982.78;5105690;28;20032;-76
2021/06/18 01:40:37;;;;;;;4.13;2.50;;;;;;;18.43;74.06;98979.75;5098205;28;20506;-76
2021/06/18 01:43:06;;;;;;;2.58;2.20;;;;;;;18.45;74.06;98986.41;5093693;28;20050;-77
2021/06/18 01:45:33;;;;;;;2.47;1.80;;;;;;;18.48;74.02;98987.66;5107732;28;20483;-76
2021/06/18 01:48:02;;;;;;;3.78;2.25;;;;;;;18.48;74.26;98993.06;5091219;28;20103;-76
2021/06/18 01:50:28;;;;;;;3.55;2.13;;;;;;;18.48;74.21;98987.66;5091647;28;20070;-77
2021/06/18 01:52:59;;;;;;;2.33;2.13;;;;;;;18.50;74.02;98996.25;5073292;28;20028;-79
2021/06/18 01:55:26;;;;;;;2.88;2.38;;;;;;;18.47;74.29;98997.72;5091251;28;20505;-77
2021/06/18 01:57:55;;;;;;;5.15;2.33;;;;;;;18.45;74.53;98993.75;5096733;28;20028;-78
2021/06/18 02:00:22;;;;;;;3.13;2.80;;;;;;;18.47;74.29;98997.72;5112005;28;20041;-77
2021/06/18 02:02:48;;;;;;;5.97;2.45;;;;;;;18.48;74.54;98998.47;5073727;28;20478;-77
2021/06/18 02:05:16;;;;;;;3.15;2.85;;;;;;;18.42;74.70;98991.69;5073383;28;20032;-77
2021/06/18 02:07:43;;;;;;;2.50;2.30;;;;;;;18.42;75.12;98992.50;5091680;28;20024;-76
2021/06/18 02:10:10;;;;;;;2.42;2.22;;;;;;;18.42;75.08;98995.19;5078477;28;20028;-77
2021/06/18 02:12:36;;;;;;;2.92;2.60;;;;;;;18.42;75.16;98997.91;5091215;28;20031;-76
2021/06/18 02:15:05;;;;;;;3.70;2.88;;;;;;;18.40;74.64;98998.22;5090787;28;20039;-76
2021/06/18 02:17:32;;;;;;;3.17;2.75;;;;;;;18.39;74.85;98991.25;5111025;28;20437;-76
2021/06/18 02:20:00;;;;;;;6.15;3.08;;;;;;;18.40;74.79;99000.94;5111486;28;20028;-75
2021/06/18 02:22:26;;;;;;;4.80;2.73;;;;;;;18.43;74.58;98996.78;5111662;28;20019;-75
2021/06/18 02:24:52;;;;;;;3.90;2.65;;;;;;;18.40;74.48;98994.72;5110118;28;20303;-75
2021/06/18 02:27:18;;;;;;;5.03;2.45;;;;;;;18.38;74.57;99003.19;5091118;28;20020;-75
2021/06/18 02:29:44;;;;;;;2.55;2.25;;;;;;;18.40;74.70;99000.16;5090758;28;20402;-75
2021/06/18 02:32:12;;;;;;;6.20;2.95;;;;;;;18.39;74.59;99006.69;5090944;28;20020;-76
2021/06/18 02:34:38;;;;;;;2.60;2.38;;;;;;;18.38;74.53;99003.19;5091208;28;20111;-77
2021/06/18 02:37:04;;;;;;;2.92;2.20;;;;;;;18.35;74.75;99001.13;5090973;28;20104;-78
2021/06/18 02:39:30;;;;;;;3.22;2.95;;;;;;;18.37;74.46;99004.31;5073191;28;20544;-80
2021/06/18 02:41:56;;;;;;;3.55;2.88;;;;;;;18.34;74.82;99004.16;5073103;28;20039;-80
2021/06/18 02:44:21;;;;;;;2.72;2.53;;;;;;;18.34;74.80;98998.75;5072933;28;20407;-79
2021/06/18 02:47:06;;;;;;;3.40;2.90;;;;;;;18.32;74.64;99007.22;5073063;28;20024;-78
2021/06/18 02:49:44;;;;;;;5.75;2.60;;;;;;;18.30;74.60;99009.44;5083509;28;20043;-78
2021/06/18 02:52:18;;;;;;;3.95;2.63;;;;;;;18.29;74.90;99009.78;5105245;28;20024;-78
2021/06/18 02:54:56;;;;;;;3.13;2.45;;;;;;;18.29;75.07;99010.56;5115650;28;20063;-78
2021/06/18 02:57:25;;;;;;;;;;;;;;;18.29;75.24;99009.78;5116012;28;20027;-78
2021/06/18 03:00:12;;;;;;;6.07;2.72;;;;;;;18.24;75.65;98998.00;5115368;28;19915;-77
2021/06/18 03:02:45;;;;;;;4.30;2.50;;;;;;;18.27;75.61;98999.25;5095116;28;20111;-78
2021/06/18 03:05:14;;;;;;;2.75;2.55;;;;;;;18.29;75.59;98998.94;5107788;28;20024;-77
2021/06/18 03:07:45;;;;;;;2.83;2.47;;;;;;;18.30;75.67;98995.91;5096926;28;20024;-77
2021/06/18 03:10:15;;;;;;;3.78;2.85;;;;;;;18.32;75.60;98999.09;5114326;28;20020;-77
2021/06/18 03:12:44;;;;;;;4.05;2.78;;;;;;;18.31;75.88;99005.63;5115317;28;20036;-78
2021/06/18 03:15:11;;;;;;;4.10;2.67;;;;;;;18.30;75.83;98995.91;5096241;28;20019;-76
2021/06/18 03:17:41;;;;;;;3.97;3.25;;;;;;;18.31;75.88;98992.09;5104205;28;20047;-77
2021/06/18 03:20:15;;;;;;;4.07;3.17;;;;;;;18.26;76.10;98991.47;5094691;28;20032;-76
2021/06/18 03:22:42;;;;;;;3.47;3.15;;;;;;;18.23;75.61;98982.09;5094494;28;20028;-77
2021/06/18 03:25:08;;;;;;;4.88;3.20;;;;;;;18.21;75.87;98992.44;5094182;28;20073;-77
2021/06/18 03:27:35;;;;;;;4.43;3.35;;;;;;;18.18;75.92;98985.00;5094490;28;20028;-77
2021/06/18 03:30:01;;;;;;;5.00;3.38;;;;;;;18.16;76.03;98976.41;5097297;28;20050;-77
2021/06/18 03:32:28;;;;;;;3.55;2.80;;;;;;;18.12;76.15;98980.91;5114657;28;20110;-77
2021/06/18 03:34:55;;;;;;;5.80;3.38;;;;;;;18.10;76.44;98983.91;5102360;28;20043;-78
2021/06/18 03:37:21;;;;;;;5.32;3.65;;;;;;;18.07;76.43;98979.97;5099204;28;20050;-77
2021/06/18 03:39:47;;;;;;;5.28;3.20;;;;;;;18.12;76.41;98991.72;5108582;28;20483;-77
2021/06/18 03:42:13;;;;;;;5.95;3.50;;;;;;;18.12;76.56;98989.03;5113893;28;20027;-78
2021/06/18 03:44:40;;;;;;;6.55;2.90;;;;;;;18.17;76.82;99000.44;5114071;28;20118;-77
2021/06/18 03:47:07;;;;;;;5.38;3.30;;;;;;;18.20;76.63;98985.44;5114175;28;20023;-77
2021/06/18 03:49:34;;;;;;;7.18;3.05;;;;;;;18.21;76.67;98995.16;5114269;28;20028;-77
2021/06/18 03:51:59;;;;;;;4.57;3.53;;;;;;;18.23;76.81;98991.00;5084590;28;20542;-78
2021/06/18 03:54:25;;;;;;;6.70;3.55;;;;;;;18.27;76.83;98996.56;5075991;28;20123;-77
2021/06/18 03:56:52;;;;;;;3.83;2.95;;;;;;;18.34;76.38;99002.25;5075700;28;20034;-77
2021/06/18 03:59:19;;;;;;;3.33;3.08;;;;;;;18.39;76.23;99004.78;5093541;28;20103;-78
2021/06/18 04:01:52;;;;;;;5.45;3.50;;;;;;;18.47;76.28;98991.47;5086098;28;20497;-77
2021/06/18 04:04:21;;;;;;;9.23;3.92;;;;;;;18.50;76.25;99001.66;5094820;28;20475;-77
2021/06/18 04:06:47;;;;;;;4.47;3.05;;;;;;;18.51;76.25;98993.19;5095706;28;20031;-76
2021/06/18 04:09:13;;;;;;;6.00;3.22;;;;;;;18.54;76.90;98997.16;5093819;28;20110;-78
2021/06/18 04:11:39;;;;;;;5.40;3.33;;;;;;;18.59;76.92;98990.75;5095666;28;20023;-76
2021/06/18 04:14:07;;;;;;;3.40;3.13;;;;;;;18.62;76.78;98999.03;5095607;28;20081;-76
2021/06/18 04:16:32;;;;;;;4.40;3.20;;;;;;;18.66;76.63;98999.97;5108383;28;20029;-75
2021/06/18 04:18:58;;;;;;;3.83;3.38;;;;;;;18.71;76.49;98998.94;5113487;28;20344;-77
2021/06/18 04:21:26;;;;;;;4.85;3.05;;;;;;;18.74;76.06;98998.28;5108951;28;20031;-76
2021/06/18 04:23:51;;;;;;;3.40;3.05;;;;;;;18.79;76.10;98989.19;5098292;28;20056;-77
2021/06/18 04:26:20;;;;;;;6.38;3.70;;;;;;;18.81;75.94;98986.91;5099840;28;20504;-77
2021/06/18 04:28:46;;;;;;;3.45;3.10;;;;;;;18.84;75.83;98989.75;5092670;28;20028;-76
2021/06/18 04:31:11;;;;;;;3.05;2.70;;;;;;;18.88;75.91;98998.00;5094112;28;20032;-77
2021/06/18 04:33:37;;;;;;;4.75;4.25;;;;;;;18.92;75.87;98990.03;5112482;28;20027;-77
2021/06/18 04:36:03;;;;;;;12.43;5.57;;;;;;;18.99;75.65;98988.38;5094957;28;20044;-78
2021/06/18 04:38:29;;;;;;;6.10;3.78;;;;;;;19.04;75.57;98996.31;5113361;28;20689;-78
2021/06/18 04:40:54;;;;;;;3.97;3.50;;;;;;;19.11;75.13;98995.75;5095476;28;20027;-78
2021/06/18 04:43:20;;;;;;;5.60;3.53;;;;;;;19.18;75.28;98990.56;5094847;28;20114;-78
2021/06/18 04:45:46;;;;;;;5.25;3.78;;;;;;;19.26;75.12;98996.25;5095158;28;20027;-78
2021/06/18 04:48:11;;;;;;;4.47;2.65;;;;;;;19.34;74.81;98990.72;5113159;28;20019;-77
2021/06/18 04:50:37;;;;;;;3.55;3.08;;;;;;;19.42;74.76;98997.19;5094970;28;20034;-78
2021/06/18 04:53:05;;;;;;;3.08;2.78;;;;;;;19.48;74.55;98987.72;5113615;28;20462;-78
2021/06/18 04:55:31;;;;;;;6.00;2.83;;;;;;;19.61;74.59;98993.94;5113081;28;20028;-79
2021/06/18 04:57:56;;;;;;;4.78;3.00;;;;;;;19.71;73.96;98987.25;5113250;28;20023;-77
2021/06/18 05:00:25;;;;;;;5.30;3.17;;;;;;;19.84;74.00;98988.09;5112817;28;20039;-77
2021/06/18 05:02:51;;;;;;;5.13;3.45;;;;;;;19.94;73.53;98981.41;5094838;28;20478;-77
2021/06/18 05:05:17;;;;;;;3.75;3.38;;;;;;;20.08;72.90;98981.88;5113072;28;20097;-77
2021/06/18 05:07:42;;;;;;;5.93;3.00;;;;;;;20.25;72.41;98986.25;5095146;28;20023;-78
2021/06/18 05:10:09;;;;;;;3.97;3.58;;;;;;;20.35;72.40;98986.91;5094473;28;20035;-78
2021/06/18 05:12:38;;;;;;;7.60;3.67;;;;;;;20.56;71.74;98986.75;5094420;28;20024;-77
2021/06/18 05:15:05;;;;;;;4.38;3.80;;;;;;;20.75;71.05;98986.13;5093129;28;20031;-77
2021/06/18 05:17:30;;;;;;;6.53;3.58;;;;;;;20.92;70.26;98985.03;5112843;28;20397;-78
2021/06/18 05:19:56;;;;;;;4.28;3.10;;;;;;;21.12;69.84;98991.41;5112924;28;20119;-78
2021/06/18 05:22:21;;;;;;;3.65;3.17;;;;;;;21.25;68.84;98990.22;5112120;28;20024;-77
2021/06/18 05:24:46;;;;;;;3.40;2.75;;;;;;;21.39;67.92;98981.63;5112202;28;20055;-77
2021/06/18 05:27:12;;;;;;;3.42;3.13;;;;;;;21.52;67.93;98979.63;5112015;28;20102;-77
2021/06/18 05:29:37;;;;;;;7.65;5.47;;;;;;;21.71;67.23;98980.88;5112132;28;20035;-77
2021/06/18 05:32:04;;;;;;;4.63;3.85;;;;;;;21.97;67.47;98985.75;5112237;28;20028;-78
2021/06/18 05:34:29;;;;;;;3.25;2.40;;;;;;;22.33;66.45;98991.97;5112465;28;20493;-78
2021/06/18 05:36:55;;;;;;;4.28;2.38;;;;;;;22.73;65.35;98984.66;5112342;28;20024;-77
2021/06/18 05:39:20;;;;;;;4.18;2.53;;;;;;;23.24;64.43;98991.06;5111988;28;20020;-77
2021/06/18 05:41:45;;;;;;;2.22;2.03;;;;;;;23.86;62.36;98984.69;5112468;28;20023;-77
2021/06/18 05:44:11;;;;;;;2.33;2.13;;;;;;;24.57;59.88;98984.13;5112226;28;20027;-78
2021/06/18 05:46:36;;;;;;;4.82;2.38;;;;;;;25.30;56.20;98993.91;5112168;28;20501;-78
2021/06/18 05:49:02;;;;;;;3.80;1.95;;;;;;;25.86;55.26;98981.09;5093579;28;20023;-78
2021/06/18 05:51:28;;;;;;;2.05;1.95;;;;;;;26.53;53.83;98987.38;5112022;28;20026;-78
2021/06/18 05:53:53;;;;;;;1.92;1.63;;;;;;;27.21;51.97;98980.53;5093733;28;20033;-78
2021/06/18 05:56:20;;;;;;;3.33;1.45;;;;;;;27.87;50.26;98973.88;5093355;28;20027;-79
2021/06/18 05:58:45;;;;;;;2.42;2.20;;;;;;;28.21;46.93;98979.72;5112271;28;20164;-79
2021/06/18 06:01:10;;;;;;;2.28;1.73;;;;;;;28.37;46.76;98981.22;5111904;28;20486;-78
2021/06/18 06:03:36;;;;;;;2.25;2.05;;;;;;;28.33;46.33;98972.22;5111810;28;20038;-78
2021/06/18 06:06:01;;;;;;;3.10;1.75;;;;;;;28.53;45.80;98975.31;5093709;28;20106;-79
2021/06/18 06:08:29;;;;;;;3.30;2.30;;;;;;;28.60;46.33;98978.81;5093453;28;20111;-78
2021/06/18 06:10:55;;;;;;;2.35;1.80;;;;;;;28.66;45.87;98978.38;5112141;28;20035;-77
2021/06/18 06:13:20;;;;;;;3.38;1.83;;;;;;;28.82;44.43;98967.72;5111913;28;20028;-78
2021/06/18 06:15:47;;;;;;;1.67;1.58;;;;;;;28.88;44.53;98968.88;5111789;28;20037;-78
2021/06/18 06:18:14;;;;;;;2.28;2.03;;;;;;;28.83;44.97;98974.00;5111619;28;20092;-78
2021/06/18 06:20:43;;;;;;;3.05;2.40;;;;;;;28.80;43.93;98975.59;5111541;28;20039;-78
2021/06/18 06:23:10;;;;;;;2.53;2.30;;;;;;;28.81;43.19;98968.91;5111201;28;20031;-78
2021/06/18 06:25:35;;;;;;;3.35;1.85;;;;;;;28.98;44.32;98974.69;5092926;28;20050;-78
2021/06/18 06:28:01;;;;;;;5.53;2.50;;;;;;;29.17;43.86;98968.66;5092933;28;20019;-78
2021/06/18 06:30:26;;;;;;;3.92;2.58;;;;;;;29.17;43.91;98962.38;5092928;28;20101;-77
2021/06/18 06:32:52;;;;;;;5.22;3.15;;;;;;;29.27;43.32;98974.50;5093387;28;20024;-78
2021/06/18 06:35:17;;;;;;;3.20;2.53;;;;;;;29.07;42.62;98961.28;5111030;28;20028;-77
2021/06/18 06:37:43;;;;;;;6.10;3.00;;;;;;;28.96;43.92;98968.81;5093173;28;20031;-77
2021/06/18 06:40:11;;;;;;;2.28;2.08;;;;;;;28.67;43.54;98977.97;5111270;28;20106;-77
2021/06/18 06:42:36;;;;;;;9.15;3.28;;;;;;;28.50;44.85;98971.34;5111178;28;20036;-77
2021/06/18 06:45:03;;;;;;;3.58;2.67;;;;;;;28.28;44.82;98970.66;5111481;28;20035;-77
2021/06/18 06:47:28;;;;;;;2.75;2.17;;;;;;;28.10;44.79;98971.50;5110839;28;20106;-77
2021/06/18 06:49:54;;;;;;;2.30;2.10;;;;;;;27.82;45.80;98969.59;5111420;28;20106;-77
2021/06/18 06:52:20;;;;;;;2.50;2.30;;;;;;;27.52;46.71;98970.78;5092933;28;20076;-77
2021/06/18 06:54:46;;;;;;;4.78;3.10;;;;;;;27.26;47.01;98967.19;5093064;28;20119;-79
2021/06/18 06:57:11;;;;;;;4.75;3.58;;;;;;;27.08;48.46;98980.91;5111336;28;20110;-79
2021/06/18 06:59:37;;;;;;;3.22;2.45;;;;;;;26.93;48.84;98966.38;5092929;28;20115;-79
2021/06/18 07:02:03;;;;;;;2.45;2.25;;;;;;;26.87;48.81;98967.13;5092378;28;20024;-77
2021/06/18 07:04:28;;;;;;;2.65;2.45;;;;;;;26.85;48.72;98964.78;5111082;28;20031;-79
2021/06/18 07:06:54;;;;;;;6.68;6.00;;;;;;;26.66;48.36;98963.16;5092923;28;20031;-79
2021/06/18 07:09:19;;;;;;;2.85;2.55;;;;;;;26.66;48.77;98960.41;5092647;28;20102;-79
2021/06/18 07:11:45;;;;;;;3.70;2.78;;;;;;;26.74;48.76;98961.97;5092885;28;20022;-79
2021/06/18 07:14:10;;;;;;;3.42;2.80;;;;;;;26.80;48.63;98956.94;5111089;28;20038;-79
2021/06/18 07:16:36;;;;;;;3.25;2.80;;;;;;;26.66;48.84;98957.66;5092561;28;20084;-79
2021/06/18 07:19:01;;;;;;;3.20;2.90;;;;;;;26.60;49.01;98945.47;5093047;28;20085;-78
2021/06/18 07:21:27;;;;;;;2.97;2.70;;;;;;;26.56;49.06;98941.94;5092187;28;20027;-79
2021/06/18 07:23:52;;;;;;;3.55;2.83;;;;;;;26.65;49.04;98953.34;5110755;28;20401;-79
2021/06/18 07:26:18;;;;;;;3.97;3.00;;;;;;;26.70;48.37;98952.97;5110750;28;20030;-79
2021/06/18 07:28:43;;;;;;;5.95;2.75;;;;;;;26.77;48.39;98955.75;5110893;28;20448;-78
2021/06/18 07:31:09;;;;;;;3.58;3.28;;;;;;;26.75;48.52;98958.09;5110935;28;20028;-78
2021/06/18 07:33:35;;;;;;;6.13;3.08;;;;;;;26.69;48.54;98954.13;5092408;28;20422;-78
2021/06/18 07:36:01;;;;;;;5.97;3.13;;;;;;;26.62;48.89;98949.41;5110919;28;20027;-78
2021/06/18 07:38:26;;;;;;;4.43;3.10;;;;;;;26.63;49.16;98953.72;5111574;28;20031;-78
2021/06/18 07:40:52;;;;;;;4.97;3.17;;;;;;;26.60;49.07;98938.03;5095971;28;20024;-78
2021/06/18 07:43:17;;;;;;;6.90;2.88;;;;;;;26.62;49.31;98948.63;5114263;28;20031;-78
2021/06/18 07:45:42;;;;;;;9.63;3.42;;;;;;;26.66;49.03;98941.97;5114271;28;20483;-78
2021/06/18 07:48:11;;;;;;;4.68;2.83;;;;;;;26.73;49.78;98941.19;5096147;28;20031;-78
2021/06/18 07:50:38;;;;;;;7.93;3.22;;;;;;;26.72;49.69;98942.41;5114031;28;20023;-78
2021/06/18 07:53:04;;;;;;;9.70;5.30;;;;;;;26.78;50.08;98940.06;5096055;28;20478;-78
2021/06/18 07:55:30;;;;;;;3.42;3.13;;;;;;;26.86;49.61;98930.69;5113762;28;20108;-78
2021/06/18 07:57:55;;;;;;;3.25;2.95;;;;;;;26.92;49.77;98940.09;5114186;28;20027;-78
2021/06/18 08:00:21;;;;;;;2.85;2.65;;;;;;;27.07;50.22;98946.38;5095559;28;20539;-78
2021/06/18 08:02:47;;;;;;;3.63;2.20;;;;;;;27.23;49.14;98939.75;5095888;28;20027;-78
2021/06/18 08:05:13;;;;;;;2.80;2.53;;;;;;;27.22;48.10;98940.91;5114119;28;20024;-78
2021/06/18 08:07:40;;;;;;;2.72;2.15;;;;;;;27.37;48.53;98930.72;5095563;28;20061;-78
2021/06/18 08:10:07;;;;;;;2.53;2.33;;;;;;;27.53;48.18;98935.88;5113966;28;20020;-78
2021/06/18 08:12:33;;;;;;;2.92;2.30;;;;;;;27.57;47.85;98931.16;5113840;28;20081;-78
2021/06/18 08:14:59;;;;;;;4.07;2.40;;;;;;;27.72;48.55;98935.44;5113660;28;20066;-78
2021/06/18 08:17:24;;;;;;;5.07;3.20;;;;;;;27.77;47.85;98937.00;5095516;28;20028;-78
2021/06/18 08:19:49;;;;;;;3.38;2.28;;;;;;;27.70;46.26;98940.53;5113878;28;20039;-78
2021/06/18 08:22:15;;;;;;;5.57;4.75;;;;;;;27.69;46.32;98925.25;5095609;28;20070;-78
2021/06/18 08:24:41;;;;;;;8.32;4.10;;;;;;;27.63;45.16;98935.06;5095060;28;20579;-78
2021/06/18 08:27:06;;;;;;;2.60;2.40;;;;;;;27.53;45.63;98931.16;5113617;28;20031;-77
2021/06/18 08:29:32;;;;;;;4.90;4.03;;;;;;;27.43;46.14;98937.44;5113479;28;20458;-78
2021/06/18 08:31:57;;;;;;;4.57;2.78;;;;;;;27.30;46.75;98937.78;5095411;28;20077;-77
2021/06/18 08:34:23;;;;;;;4.72;3.28;;;;;;;27.34;47.98;98937.78;5113453;28;20028;-77
2021/06/18 08:36:48;;;;;;;2.88;2.63;;;;;;;27.28;46.41;98925.63;5095248;28;20054;-77
2021/06/18 08:39:14;;;;;;;3.10;2.90;;;;;;;27.30;45.52;98928.78;5095321;28;20043;-77
2021/06/18 08:41:40;;;;;;;3.78;3.13;;;;;;;27.36;45.81;98929.94;5094918;28;20031;-79
2021/06/18 08:44:06;;;;;;;3.55;2.88;;;;;;;27.39;45.83;98936.63;5095097;28;20046;-77
2021/06/18 08:46:31;;;;;;;2.58;2.13;;;;;;;27.37;45.28;98930.72;5094916;28;20024;-78
2021/06/18 08:48:57;;;;;;;3.10;2.80;;;;;;;27.35;46.73;98922.88;5112908;28;20115;-80
2021/06/18 08:51:23;;;;;;;2.67;2.47;;;;;;;27.39;46.49;98917.38;5112759;28;20110;-78
2021/06/18 08:53:49;;;;;;;2.75;2.55;;;;;;;27.21;46.74;98917.38;5094989;28;20058;-78
2021/06/18 08:56:15;;;;;;;3.05;2.78;;;;;;;27.20;46.88;98924.84;5113228;28;20035;-78
2021/06/18 08:58:40;;;;;;;2.95;2.75;;;;;;;27.20;46.45;98913.09;5112847;28;20023;-78
2021/06/18 09:01:06;;;;;;;3.05;2.80;;;;;;;27.24;46.70;98925.63;5094819;28;20024;-78
2021/06/18 09:03:36;;;;;;;2.80;2.60;;;;;;;27.29;46.20;98921.72;5094532;28;20501;-78
2021/06/18 09:06:20;;;;;;;2.65;2.45;;;;;;;27.20;45.78;98919.34;5113077;28;20055;-78
2021/06/18 09:08:47;;;;;;;4.35;3.53;;;;;;;27.08;46.55;98922.50;5113132;28;20038;-78
2021/06/18 09:11:12;;;;;;;3.17;2.40;;;;;;;27.06;46.40;98924.84;5094488;28;20470;-78
2021/06/18 09:13:39;;;;;;;5.22;2.10;;;;;;;26.87;45.59;98925.97;5112433;28;20070;-78
2021/06/18 09:16:05;;;;;;;8.60;2.60;;;;;;;26.65;45.10;98920.44;5112738;28;20020;-78
2021/06/18 09:18:37;;;;;;;2.20;2.00;;;;;;;26.50;45.51;98917.63;5112560;28;20023;-78
2021/06/18 09:21:03;;;;;;;3.15;2.00;;;;;;;26.42;43.32;98927.00;5094407;28;20522;-78
2021/06/18 09:23:34;;;;;;;2.30;2.13;;;;;;;26.29;42.40;98914.81;5094063;28;20110;-78
2021/06/18 09:26:21;;;;;;;1.85;1.75;;;;;;;26.13;44.55;98918.66;5094221;28;20031;-77
2021/06/18 09:29:07;;;;;;;3.27;2.60;;;;;;;26.05;46.12;98917.81;5094209;28;20382;-77
2021/06/18 09:31:39;;;;;;;2.35;2.15;;;;;;;25.97;44.11;98909.94;5112254;28;20293;-77
2021/06/18 09:34:07;;;;;;;3.13;2.25;;;;;;;25.94;46.60;98916.97;5112351;28;20034;-77
2021/06/18 09:36:33;;;;;;;2.63;2.15;;;;;;;25.85;46.26;98914.59;5093966;28;20039;-78
2021/06/18 09:39:00;;;;;;;4.60;3.22;;;;;;;25.71;47.65;98909.00;5094087;28;20032;-77
2021/06/18 09:41:45;;;;;;;2.70;2.47;;;;;;;25.60;48.70;98908.94;5112030;28;20506;-77
2021/06/18 09:44:16;;;;;;;3.70;2.30;;;;;;;25.53;47.75;98906.94;5112172;28;20084;-78
2021/06/18 09:46:43;;;;;;;3.58;2.58;;;;;;;25.53;48.03;98917.09;5093598;28;20036;-79
2021/06/18 09:49:32;;;;;;;3.15;2.17;;;;;;;25.41;48.51;98902.56;5112098;28;20034;-78
2021/06/18 09:52:07;;;;;;;2.55;2.35;;;;;;;25.44;47.48;98901.00;5079424;28;20048;-78
2021/06/18 09:54:38;;;;;;;4.43;2.25;;;;;;;25.46;47.75;98906.09;5111548;28;20080;-78
2021/06/18 09:57:17;;;;;;;2.03;1.92;;;;;;;25.37;47.01;98889.97;5111622;28;20405;-78
2021/06/18 09:59:59;;;;;;;2.28;2.08;;;;;;;25.38;47.40;98894.31;5093657;28;20031;-78
2021/06/18 10:02:43;;;;;;;2.33;2.13;;;;;;;25.32;47.34;98891.09;5111138;28;20046;-78
2021/06/18 10:05:09;;;;;;;1.90;1.80;;;;;;;25.36;48.19;98888.41;5093685;28;20111;-78
2021/06/18 10:07:35;;;;;;;1.70;1.60;;;;;;;25.33;47.69;98886.41;5093339;28;20055;-78
2021/06/18 10:10:04;;;;;;;2.33;2.10;;;;;;;25.35;47.45;98892.28;5111786;28;20023;-78
2021/06/18 10:12:30;;;;;;;2.13;1.92;;;;;;;25.30;47.12;98890.69;5103234;28;20023;-79
2021/06/18 10:14:56;;;;;;;2.08;1.83;;;;;;;25.20;47.45;98881.22;5111758;28;20083;-78
2021/06/18 10:17:22;;;;;;;1.90;1.70;;;;;;;25.20;48.29;98878.50;5111767;28;20051;-78
2021/06/18 10:19:48;;;;;;;2.60;2.00;;;;;;;25.21;48.13;98890.25;5093334;28;20026;-78
2021/06/18 10:22:19;;;;;;;5.93;2.10;;;;;;;25.15;47.52;98878.09;5111999;28;20028;-78
2021/06/18 10:24:54;;;;;;;3.08;2.25;;;;;;;25.10;49.06;98879.22;5111292;28;20414;-78
2021/06/18 10:27:27;;;;;;;5.53;3.90;;;;;;;25.03;48.99;98865.47;5093160;28;20028;-78
2021/06/18 10:29:53;;;;;;;2.28;1.83;;;;;;;24.92;48.96;98876.31;5111778;28;20097;-78
2021/06/18 10:32:28;;;;;;;2.88;2.30;;;;;;;24.81;49.23;98870.75;5093302;28;20039;-78
2021/06/18 10:34:54;;;;;;;2.42;2.22;;;;;;;24.62;49.48;98874.44;5111571;28;20020;-77
2021/06/18 10:37:22;;;;;;;2.78;2.00;;;;;;;24.53;50.27;98868.47;5111312;28;20154;-79
2021/06/18 10:39:56;;;;;;;2.25;2.08;;;;;;;24.34;49.46;98866.69;5110981;28;20081;-79
2021/06/18 10:42:23;;;;;;;4.15;2.00;;;;;;;24.23;52.11;98863.84;5093158;28;20028;-78
2021/06/18 10:44:53;;;;;;;1.85;1.63;;;;;;;24.12;52.84;98864.50;5092886;28;20035;-77
2021/06/18 10:47:22;;;;;;;3.42;2.30;;;;;;;24.04;53.04;98856.59;5111505;28;20063;-77
2021/06/18 10:49:48;;;;;;;2.65;1.83;;;;;;;23.95;53.48;98852.22;5110872;28;20456;-79
2021/06/18 10:52:16;;;;;;;2.10;1.90;;;;;;;23.87;53.18;98850.50;5093189;28;20037;-77
2021/06/18 10:54:47;;;;;;;2.35;2.15;;;;;;;23.82;54.61;98848.88;5111008;28;20062;-79
2021/06/18 10:57:14;;;;;;;5.88;2.70;;;;;;;23.82;55.20;98853.56;5093024;28;20028;-79
2021/06/18 10:59:44;;;;;;;2.22;2.05;;;;;;;23.80;54.91;98845.75;5092737;28;20118;-79
2021/06/18 11:02:21;;;;;;;2.95;2.65;;;;;;;23.75;54.36;98848.78;5111014;28;20024;-79
2021/06/18 11:04:53;;;;;;;3.58;2.17;;;;;;;23.72;54.69;98846.03;5111031;28;20482;-79
2021/06/18 11:07:25;;;;;;;2.58;2.38;;;;;;;23.68;54.04;98843.25;5111318;28;20028;-78
2021/06/18 11:10:06;;;;;;;2.13;1.92;;;;;;;23.62;54.14;98850.97;5111143;28;20074;-78
2021/06/18 11:12:32;;;;;;;3.08;2.13;;;;;;;23.61;54.59;98848.59;5110980;28;20051;-78
2021/06/18 11:14:59;;;;;;;4.13;2.38;;;;;;;23.57;55.14;98848.56;5095895;28;20114;-78
2021/06/18 11:17:36;;;;;;;2.63;2.42;;;;;;;23.55;55.53;98844.63;5115450;28;20482;-78
2021/06/18 11:20:05;;;;;;;3.13;2.33;;;;;;;23.52;56.14;98840.66;5115176;28;20063;-78
2021/06/18 11:22:34;;;;;;;2.75;2.55;;;;;;;23.47;56.31;98836.34;5115568;28;20054;-78
2021/06/18 11:24:59;;;;;;;2.88;2.58;;;;;;;23.41;56.77;98834.28;5114787;28;20054;-78
2021/06/18 11:27:26;;;;;;;3.53;2.75;;;;;;;23.39;57.18;98848.28;5096480;28;20028;-79
2021/06/18 11:30:24;;;;;;;2.88;2.60;;;;;;;23.35;57.32;98844.69;5114752;28;20036;-78
2021/06/18 11:32:50;;;;;;;4.28;2.70;;;;;;;23.31;58.41;98835.69;5114584;28;20103;-79
2021/06/18 11:35:33;;;;;;;2.85;2.65;;;;;;;23.32;58.26;98831.81;5114437;28;20123;-78
2021/06/18 11:38:12;;;;;;;3.95;3.38;;;;;;;23.27;58.08;98824.72;5114715;28;20031;-78
2021/06/18 11:40:38;;;;;;;2.65;2.45;;;;;;;23.29;58.62;98816.16;5096028;28;20027;-78